Flight Track Log - Related Links

Times and Time Zones

All times are in EDT time to prevent confusion due to time zone crossing. See the N5FT flight status page for this flight to view local times or setup timezone preferences in your user account.


Time Position Orientation Groundspeed Altitude Reporting Facility
EDT Latitude Longitude Course Direction KTS MPH feet Rate Location/Type
Wed 11:39:05 AM 29.8756 -95.8333 354° North 164 189 2,600  Level Houston Center
Wed 11:39:48 AM 29.9072 -95.8369 354° North 160 184 2,700 436 Climbing Houston Center
Wed 11:40:55 AM 29.9525 -95.8508 345° North 145 167 3,400 545 Climbing Houston Center
Wed 11:41:16 AM 29.9592 -95.8528 346° North 157 181 3,500 716 Climbing Houston Center
Wed 11:42:02 AM 29.9958 -95.8653 344° North 138 159 4,200 968 Climbing Houston Center
Wed 11:42:18 AM 30.0039 -95.8664 353° North 143 165 4,500 885 Climbing Houston Center
Wed 11:43:03 AM 30.0322 -95.8731 348° North 135 155 5,100 581 Climbing Houston Center
Wed 11:43:20 AM 30.0400 -95.8753 346° North 133 153 5,100 107 Level Houston Center
Wed 11:43:59 AM 30.0711 -95.8856 344° North 170 196 5,200 387 Climbing Houston Center
Wed 11:44:22 AM 30.0850 -95.8864 357° North 156 180 5,500 787 Climbing Houston Center
Wed 11:45:00 AM 30.1139 -95.8950 346° North 147 169 6,000 581 Climbing Houston Center
Wed 11:45:24 AM 30.1261 -95.8956 358° North 157 181 6,100 600 Climbing Houston Center
Wed 11:46:00 AM 30.1567 -95.9044 346° North 149 171 6,600 571 Climbing Houston Center
Wed 11:46:27 AM 30.1681 -95.9039 North 155 178 6,700 448 Climbing Houston Center
Wed 11:47:07 AM 30.2017 -95.9139 346° North 153 176 7,100 484 Climbing Houston Center
Wed 11:47:29 AM 30.2178 -95.9156 355° North 152 175 7,200 441 Climbing Houston Center
Wed 11:48:15 AM 30.2489 -95.9253 345° North 155 178 7,600 484 Climbing Houston Center
Wed 11:48:31 AM 30.2600 -95.9258 358° North 153 176 7,700 857 Climbing Houston Center
Wed 11:49:04 AM 30.2789 -95.9339 340° North 128 147 8,300 774 Climbing Houston Center
Wed 11:49:33 AM 30.2969 -95.9361 354° North 144 166 8,500 295 Climbing Houston Center
Wed 11:50:05 AM 30.3217 -95.9436 345° North 159 183 8,600 97 Climbing Houston Center
Wed 11:50:35 AM 30.3397 -95.9447 357° North 149 171 8,600 98 Level Houston Center
Wed 11:51:06 AM 30.3708 -95.9547 345° North 176 203 8,700 97 Climbing Houston Center
Wed 11:51:37 AM 30.3881 -95.9567 354° North 169 194 8,700  Level Houston Center
Wed 11:52:39 AM 30.4367 -95.9678 349° North 175 201 8,700 -48 Level Houston Center
Wed 11:53:42 AM 30.4944 -95.9811 349° North 175 201 8,600 -96 Descending Houston Center
Wed 11:54:44 AM 30.5428 -95.9925 349° North 177 204 8,500  Descending Houston Center
Wed 11:55:46 AM 30.5914 -96.0047 348° North 177 204 8,600 48 Climbing Houston Center
Wed 11:56:48 AM 30.6400 -96.0156 349° North 177 204 8,600  Level Houston Center
Wed 11:57:50 AM 30.6939 -96.0292 348° North 177 204 8,600  Level Houston Center
Wed 11:58:52 AM 30.7428 -96.0403 349° North 177 204 8,600  Level Houston Center
Wed 11:59:55 AM 30.7903 -96.0533 347° North 177 204 8,600  Level Houston Center
Wed 12:00:57 PM 30.8353 -96.0636 349° North 176 203 8,600  Level Houston Center
Wed 12:01:59 PM 30.8931 -96.0778 348° North 176 203 8,600  Level Houston Center
Wed 12:03:01 PM 30.9408 -96.0881 350° North 176 203 8,600  Level Houston Center
Wed 12:04:03 PM 30.9886 -96.1006 347° North 176 203 8,600  Level Houston Center
Wed 12:05:05 PM 31.0361 -96.1111 349° North 176 203 8,600  Level Houston Center
Wed 12:06:07 PM 31.0836 -96.1231 348° North 176 203 8,600  Level Houston Center
Wed 12:07:10 PM 31.1403 -96.1364 349° North 175 201 8,600  Level Houston Center
Wed 12:08:12 PM 31.1878 -96.1481 348° North 175 201 8,600  Level Houston Center
Wed 12:09:14 PM 31.2353 -96.1594 348° North 175 201 8,600  Level Houston Center
Wed 12:10:16 PM 31.2833 -96.1714 348° North 175 201 8,600  Level Houston Center
Wed 12:11:18 PM 31.3306 -96.1828 348° North 175 201 8,600  Level Houston Center
Wed 12:12:20 PM 31.3881 -96.1961 349° North 175 201 8,600  Level Houston Center
Wed 12:13:10 PM 31.4269 -96.2044 350° North 176 203 8,600  Level Fort Worth Center
Wed 12:14:12 PM 31.4756 -96.2167 348° North 176 203 8,600  Level Fort Worth Center
Wed 12:15:14 PM 31.5239 -96.2278 349° North 177 204 8,600  Level Fort Worth Center
Wed 12:16:16 PM 31.5725 -96.2408 347° North 177 204 8,600  Level Fort Worth Center
Wed 12:17:19 PM 31.6211 -96.2511 350° North 177 204 8,600  Level Fort Worth Center
Wed 12:18:21 PM 31.6792 -96.2653 348° North 177 204 8,600  Level Fort Worth Center
Wed 12:19:23 PM 31.7233 -96.2769 347° North 177 204 8,600  Level Fort Worth Center
Wed 12:20:25 PM 31.7714 -96.2889 348° North 177 204 8,600  Level Fort Worth Center
Wed 12:21:27 PM 31.8292 -96.3025 349° North 177 204 8,600  Level Fort Worth Center
Wed 12:22:29 PM 31.8769 -96.3133 349° North 176 203 8,600  Level Fort Worth Center
Wed 12:23:32 PM 31.9253 -96.3256 348° North 176 203 8,600  Level Fort Worth Center
Wed 12:24:34 PM 31.9736 -96.3369 349° North 176 203 8,600  Level Fort Worth Center
Wed 12:25:36 PM 32.0208 -96.3489 348° North 175 201 8,600  Level Fort Worth Center
Wed 12:26:38 PM 32.0783 -96.3631 348° North 176 203 8,600 -194 Level Fort Worth Center
Wed 12:27:40 PM 32.1261 -96.3756 348° North 175 201 8,200 -435 Descending Fort Worth Center
Wed 12:28:42 PM 32.1764 -96.3867 349° North 179 206 7,700 -532 Descending Fort Worth Center
Wed 12:29:44 PM 32.2281 -96.3986 349° North 181 208 7,100 -576 Descending Fort Worth Center
Wed 12:30:47 PM 32.2819 -96.4128 347° North 183 211 6,500 -528 Descending Fort Worth Center
Wed 12:31:49 PM 32.3317 -96.4258 347° North 183 211 6,000 -629 Descending Fort Worth Center
Wed 12:32:51 PM 32.3853 -96.4386 349° North 183 211 5,200 -677 Descending Fort Worth Center
Wed 12:33:53 PM 32.4317 -96.4578 341° North 178 205 4,600 -581 Descending Fort Worth Center
Wed 12:34:55 PM 32.4842 -96.4639 354° North 177 204 4,000 -677 Descending Fort Worth Center
Wed 12:35:57 PM 32.5286 -96.4789 344° North 169 194 3,200 -629 Descending Fort Worth Center
Wed 12:36:59 PM 32.5767 -96.4889 350° North 165 190 2,700 -480 Descending Fort Worth Center
Wed 12:38:02 PM 32.6211 -96.4978 350° North 165 190 2,200 -336 Descending Fort Worth Center
Wed 12:39:04 PM 32.6678 -96.4967 North 160 184 2,000 -242 Descending Fort Worth Center
Wed 12:40:06 PM 32.7114 -96.4997 357° North 159 183 1,700 -242 Descending Fort Worth Center
Wed 12:41:08 PM 32.7525 -96.5089 349° North 150 173 1,500 -339 Descending Fort Worth Center
Wed 12:42:10 PM 32.7722 -96.5300 318° Northwest 130 150 1,000 -387 Descending Fort Worth Center
Wed 12:43:12 PM 32.7442 -96.5306 181° South 109 125 700 -290 Descending Fort Worth Center
Wed 12:45:00 PM 32.7470 -96.5304 344° North  Level Estimated

Login

Don't have an account? Register now (free) for customized features, flight alerts, and more!